sensor_id;sensor_type;location;lat;lon;timestamp;pressure;altitude;pressure_sealevel;temperature;humidity
69667;BME280;66534;52.370;4.832;2023-05-03T00:00:14;102992.81;;;9.27;100.00
69667;BME280;66534;52.370;4.832;2023-05-03T00:00:46;103000.56;;;9.47;100.00
69667;BME280;66534;52.370;4.832;2023-05-03T00:01:16;102997.00;;;9.60;100.00
69667;BME280;66534;52.370;4.832;2023-05-03T00:01:47;103004.00;;;9.57;100.00
69667;BME280;66534;52.370;4.832;2023-05-03T00:02:17;102998.84;;;9.46;100.00
69667;BME280;66534;52.370;4.832;2023-05-03T00:02:47;102991.88;;;9.39;100.00
69667;BME280;66534;52.370;4.832;2023-05-03T00:03:18;103001.63;;;9.06;100.00
69667;BME280;66534;52.370;4.832;2023-05-03T00:03:51;103002.53;;;8.90;100.00
69667;BME280;66534;52.370;4.832;2023-05-03T00:04:22;103003.44;;;8.92;100.00
69667;BME280;66534;52.370;4.832;2023-05-03T00:04:53;103003.44;;;8.95;100.00
69667;BME280;66534;52.370;4.832;2023-05-03T00:05:24;103009.47;;;9.09;100.00
69667;BME280;66534;52.370;4.832;2023-05-03T00:05:55;103004.22;;;9.17;100.00
69667;BME280;66534;52.370;4.832;2023-05-03T00:06:25;103008.66;;;9.00;100.00
69667;BME280;66534;52.370;4.832;2023-05-03T00:06:56;103003.44;;;8.90;100.00
69667;BME280;66534;52.370;4.832;2023-05-03T00:07:27;103001.63;;;9.06;100.00
69667;BME280;66534;52.370;4.832;2023-05-03T00:07:58;103011.22;;;9.03;100.00
69667;BME280;66534;52.370;4.832;2023-05-03T00:08:29;103000.81;;;8.86;100.00
69667;BME280;66534;52.370;4.832;2023-05-03T00:09:00;103007.81;;;8.82;100.00
69667;BME280;66534;52.370;4.832;2023-05-03T00:09:34;103004.31;;;8.88;100.00
69667;BME280;66534;52.370;4.832;2023-05-03T00:10:04;103011.25;;;9.00;100.00
69667;BME280;66534;52.370;4.832;2023-05-03T00:10:35;103007.78;;;8.88;100.00
69667;BME280;66534;52.370;4.832;2023-05-03T00:11:06;103004.28;;;8.89;100.00
69667;BME280;66534;52.370;4.832;2023-05-03T00:11:37;103004.28;;;8.94;100.00
69667;BME280;66534;52.370;4.832;2023-05-03T00:12:08;103005.13;;;9.01;100.00
69667;BME280;66534;52.370;4.832;2023-05-03T00:12:39;103005.13;;;9.05;100.00
69667;BME280;66534;52.370;4.832;2023-05-03T00:13:09;103002.47;;;9.14;100.00
69667;BME280;66534;52.370;4.832;2023-05-03T00:13:40;103011.22;;;9.12;100.00
69667;BME280;66534;52.370;4.832;2023-05-03T00:14:11;103006.88;;;9.08;100.00
69667;BME280;66534;52.370;4.832;2023-05-03T00:14:42;103001.59;;;9.17;100.00
69667;BME280;66534;52.370;4.832;2023-05-03T00:15:12;103004.22;;;9.11;100.00
69667;BME280;66534;52.370;4.832;2023-05-03T00:15:43;103004.28;;;8.95;100.00
69667;BME280;66534;52.370;4.832;2023-05-03T00:16:13;103004.25;;;9.02;100.00
69667;BME280;66534;52.370;4.832;2023-05-03T00:16:43;103003.34;;;9.16;100.00
69667;BME280;66534;52.370;4.832;2023-05-03T00:17:14;102998.06;;;9.22;100.00
69667;BME280;66534;52.370;4.832;2023-05-03T00:17:44;103002.50;;;9.07;100.00
69667;BME280;66534;52.370;4.832;2023-05-03T00:18:15;103003.38;;;9.07;100.00
69667;BME280;66534;52.370;4.832;2023-05-03T00:18:45;103000.78;;;9.07;100.00
69667;BME280;66534;52.370;4.832;2023-05-03T00:19:15;102998.09;;;9.18;100.00
69667;BME280;66534;52.370;4.832;2023-05-03T00:19:46;102995.50;;;9.09;100.00
69667;BME280;66534;52.370;4.832;2023-05-03T00:20:17;102998.13;;;9.03;100.00
69667;BME280;66534;52.370;4.832;2023-05-03T00:20:49;102999.06;;;8.95;100.00
69667;BME280;66534;52.370;4.832;2023-05-03T00:21:20;102995.53;;;9.04;100.00
69667;BME280;66534;52.370;4.832;2023-05-03T00:21:50;102999.91;;;8.97;100.00
69667;BME280;66534;52.370;4.832;2023-05-03T00:22:21;102989.41;;;9.08;100.00
69667;BME280;66534;52.370;4.832;2023-05-03T00:22:51;102995.56;;;9.00;100.00
69667;BME280;66534;52.370;4.832;2023-05-03T00:23:22;102999.00;;;9.08;100.00
69667;BME280;66534;52.370;4.832;2023-05-03T00:23:52;102997.31;;;8.85;100.00
69667;BME280;66534;52.370;4.832;2023-05-03T00:24:23;102991.25;;;8.76;100.00
69667;BME280;66534;52.370;4.832;2023-05-03T00:24:53;102995.59;;;8.73;100.00
69667;BME280;66534;52.370;4.832;2023-05-03T00:25:24;102993.81;;;8.94;100.00
69667;BME280;66534;52.370;4.832;2023-05-03T00:25:54;102992.09;;;8.87;100.00
69667;BME280;66534;52.370;4.832;2023-05-03T00:26:26;102989.53;;;8.64;100.00
69667;BME280;66534;52.370;4.832;2023-05-03T00:26:57;102988.69;;;8.62;100.00
69667;BME280;66534;52.370;4.832;2023-05-03T00:27:27;102994.75;;;8.79;100.00
69667;BME280;66534;52.370;4.832;2023-05-03T00:28:00;102989.50;;;8.87;100.00
69667;BME280;66534;52.370;4.832;2023-05-03T00:28:31;102992.06;;;8.90;100.00
69667;BME280;66534;52.370;4.832;2023-05-03T00:29:01;102990.38;;;8.83;100.00
69667;BME280;66534;52.370;4.832;2023-05-03T00:29:31;102992.97;;;8.90;100.00
69667;BME280;66534;52.370;4.832;2023-05-03T00:30:02;102994.69;;;8.94;100.00
69667;BME280;66534;52.370;4.832;2023-05-03T00:30:33;102992.09;;;8.85;100.00
69667;BME280;66534;52.370;4.832;2023-05-03T00:31:09;102993.00;;;8.83;100.00
69667;BME280;66534;52.370;4.832;2023-05-03T00:31:42;102986.88;;;8.78;100.00
69667;BME280;66534;52.370;4.832;2023-05-03T00:32:13;102987.78;;;8.78;100.00
69667;BME280;66534;52.370;4.832;2023-05-03T00:32:43;102987.78;;;8.78;100.00
69667;BME280;66534;52.370;4.832;2023-05-03T00:33:14;102988.56;;;8.94;100.00
69667;BME280;66534;52.370;4.832;2023-05-03T00:33:45;102995.59;;;8.87;100.00
69667;BME280;66534;52.370;4.832;2023-05-03T00:34:15;102995.69;;;8.49;100.00
69667;BME280;66534;52.370;4.832;2023-05-03T00:34:46;102999.13;;;8.65;100.00
69667;BME280;66534;52.370;4.832;2023-05-03T00:35:16;102993.88;;;8.74;100.00
69667;BME280;66534;52.370;4.832;2023-05-03T00:35:47;102993.00;;;8.80;100.00
69667;BME280;66534;52.370;4.832;2023-05-03T00:36:17;102986.88;;;8.84;100.00
69667;BME280;66534;52.370;4.832;2023-05-03T00:36:47;102992.97;;;8.81;100.00
69667;BME280;66534;52.370;4.832;2023-05-03T00:37:18;102999.97;;;8.81;100.00
69667;BME280;66534;52.370;4.832;2023-05-03T00:37:48;102993.00;;;8.83;100.00
69667;BME280;66534;52.370;4.832;2023-05-03T00:38:18;102996.44;;;8.89;100.00
69667;BME280;66534;52.370;4.832;2023-05-03T00:38:50;102993.81;;;8.97;100.00
69667;BME280;66534;52.370;4.832;2023-05-03T00:39:20;102990.34;;;8.84;100.00
69667;BME280;66534;52.370;4.832;2023-05-03T00:39:50;102992.13;;;8.82;100.00
69667;BME280;66534;52.370;4.832;2023-05-03T00:40:21;102995.66;;;8.40;100.00
69667;BME280;66534;52.370;4.832;2023-05-03T00:40:52;102998.31;;;8.37;100.00
69667;BME280;66534;52.370;4.832;2023-05-03T00:41:23;102993.06;;;8.44;100.00
69667;BME280;66534;52.370;4.832;2023-05-03T00:41:58;102995.63;;;8.72;100.00
69667;BME280;66534;52.370;4.832;2023-05-03T00:42:29;102995.59;;;8.84;100.00
69667;BME280;66534;52.370;4.832;2023-05-03T00:42:59;102994.72;;;8.81;100.00
69667;BME280;66534;52.370;4.832;2023-05-03T00:43:30;102990.34;;;8.81;100.00
69667;BME280;66534;52.370;4.832;2023-05-03T00:44:04;102999.03;;;8.98;100.00
69667;BME280;66534;52.370;4.832;2023-05-03T00:44:35;102991.97;;;9.22;100.00
69667;BME280;66534;52.370;4.832;2023-05-03T00:45:05;102992.78;;;9.33;100.00
69667;BME280;66534;52.370;4.832;2023-05-03T00:45:36;102990.16;;;9.32;100.00
69667;BME280;66534;52.370;4.832;2023-05-03T00:46:07;102991.06;;;9.23;100.00
69667;BME280;66534;52.370;4.832;2023-05-03T00:46:39;102992.81;;;9.26;100.00
69667;BME280;66534;52.370;4.832;2023-05-03T00:47:09;102991.97;;;9.19;100.00
69667;BME280;66534;52.370;4.832;2023-05-03T00:47:40;102991.16;;;9.06;100.00
69667;BME280;66534;52.370;4.832;2023-05-03T00:48:11;102993.81;;;8.97;100.00
69667;BME280;66534;52.370;4.832;2023-05-03T00:48:42;102990.25;;;9.10;100.00
69667;BME280;66534;52.370;4.832;2023-05-03T00:49:12;102993.78;;;9.02;100.00
69667;BME280;66534;52.370;4.832;2023-05-03T00:49:43;102993.84;;;8.88;100.00
69667;BME280;66534;52.370;4.832;2023-05-03T00:50:13;102992.91;;;8.98;100.00
69667;BME280;66534;52.370;4.832;2023-05-03T00:50:44;102999.97;;;8.84;100.00
69667;BME280;66534;52.370;4.832;2023-05-03T00:51:16;102999.97;;;8.79;100.00
69667;BME280;66534;52.370;4.832;2023-05-03T00:51:49;102999.09;;;8.86;100.00
69667;BME280;66534;52.370;4.832;2023-05-03T00:52:21;103000.81;;;8.87;100.00
69667;BME280;66534;52.370;4.832;2023-05-03T00:52:52;102999.97;;;8.82;100.00
69667;BME280;66534;52.370;4.832;2023-05-03T00:53:22;103003.44;;;8.84;100.00
69667;BME280;66534;52.370;4.832;2023-05-03T00:53:53;103007.81;;;8.87;100.00
69667;BME280;66534;52.370;4.832;2023-05-03T00:54:25;103005.16;;;8.93;100.00
69667;BME280;66534;52.370;4.832;2023-05-03T00:54:56;103004.28;;;8.92;100.00
69667;BME280;66534;52.370;4.832;2023-05-03T00:55:27;103006.03;;;8.86;100.00
69667;BME280;66534;52.370;4.832;2023-05-03T00:56:00;103004.28;;;9.03;100.00
69667;BME280;66534;52.370;4.832;2023-05-03T00:56:30;103006.94;;;8.86;100.00
69667;BME280;66534;52.370;4.832;2023-05-03T00:57:02;103001.66;;;8.94;100.00
69667;BME280;66534;52.370;4.832;2023-05-03T00:57:33;103006.94;;;8.76;100.00
69667;BME280;66534;52.370;4.832;2023-05-03T00:58:04;102998.22;;;8.87;100.00
69667;BME280;66534;52.370;4.832;2023-05-03T00:58:34;102999.91;;;8.97;100.00
69667;BME280;66534;52.370;4.832;2023-05-03T00:59:08;103006.91;;;8.95;100.00
69667;BME280;66534;52.370;4.832;2023-05-03T00:59:40;103002.47;;;9.16;100.00
69667;BME280;66534;52.370;4.832;2023-05-03T01:00:11;103003.28;;;9.27;100.00
69667;BME280;66534;52.370;4.832;2023-05-03T01:00:42;102998.97;;;9.20;100.00
69667;BME280;66534;52.370;4.832;2023-05-03T01:01:12;103002.44;;;9.19;100.00
69667;BME280;66534;52.370;4.832;2023-05-03T01:01:47;103003.31;;;9.18;100.00
69667;BME280;66534;52.370;4.832;2023-05-03T01:02:19;103004.25;;;9.02;100.00
69667;BME280;66534;52.370;4.832;2023-05-03T01:02:50;103006.94;;;8.83;100.00
69667;BME280;66534;52.370;4.832;2023-05-03T01:03:21;103000.84;;;8.80;100.00
69667;BME280;66534;52.370;4.832;2023-05-03T01:03:52;103003.47;;;8.83;100.00
69667;BME280;66534;52.370;4.832;2023-05-03T01:04:23;103000.75;;;9.03;100.00
69667;BME280;66534;52.370;4.832;2023-05-03T01:04:54;103004.25;;;9.02;100.00
69667;BME280;66534;52.370;4.832;2023-05-03T01:05:25;103002.53;;;8.97;100.00
69667;BME280;66534;52.370;4.832;2023-05-03T01:06:06;102998.22;;;8.87;100.00
69667;BME280;66534;52.370;4.832;2023-05-03T01:08:22;102998.97;;;9.17;100.00
69667;BME280;66534;52.370;4.832;2023-05-03T01:09:20;102987.63;;;9.18;100.00
69667;BME280;66534;52.370;4.832;2023-05-03T01:13:27;102995.44;;;9.26;100.00
69667;BME280;66534;52.370;4.832;2023-05-03T01:14:04;102996.44;;;8.92;100.00
69667;BME280;66534;52.370;4.832;2023-05-03T01:14:53;102999.91;;;8.97;100.00
69667;BME280;66534;52.370;4.832;2023-05-03T01:15:52;102990.25;;;9.13;100.00
69667;BME280;66534;52.370;4.832;2023-05-03T01:16:34;102991.16;;;9.06;100.00
69667;BME280;66534;52.370;4.832;2023-05-03T01:17:13;103001.66;;;9.00;100.00
69667;BME280;66534;52.370;4.832;2023-05-03T01:17:49;102999.03;;;9.00;100.00
69667;BME280;66534;52.370;4.832;2023-05-03T01:18:25;103005.09;;;9.07;100.00
69667;BME280;66534;52.370;4.832;2023-05-03T01:19:04;102997.25;;;9.05;100.00
69667;BME280;66534;52.370;4.832;2023-05-03T01:19:43;102996.41;;;8.98;100.00
69667;BME280;66534;52.370;4.832;2023-05-03T01:20:21;102997.28;;;8.97;100.00
69667;BME280;66534;52.370;4.832;2023-05-03T01:20:55;102998.22;;;8.69;100.00
69667;BME280;66534;52.370;4.832;2023-05-03T01:21:28;103002.59;;;8.75;100.00
69667;BME280;66534;52.370;4.832;2023-05-03T01:24:21;102999.06;;;8.92;100.00
69667;BME280;66534;52.370;4.832;2023-05-03T01:25:13;102998.19;;;8.86;100.00
69667;BME280;66534;52.370;4.832;2023-05-03T01:25:44;102998.25;;;8.75;100.00
69667;BME280;66534;52.370;4.832;2023-05-03T01:26:27;102999.97;;;8.78;100.00
69667;BME280;66534;52.370;4.832;2023-05-03T01:26:57;102992.97;;;8.86;100.00
69667;BME280;66534;52.370;4.832;2023-05-03T01:27:28;102996.44;;;8.89;100.00
69667;BME280;66534;52.370;4.832;2023-05-03T01:27:58;102995.59;;;8.81;100.00
69667;BME280;66534;52.370;4.832;2023-05-03T01:28:29;102989.53;;;8.75;100.00
69667;BME280;66534;52.370;4.832;2023-05-03T01:28:59;102992.13;;;8.73;100.00
69667;BME280;66534;52.370;4.832;2023-05-03T01:35:07;102984.28;;;8.64;100.00
69667;BME280;66534;52.370;4.832;2023-05-03T01:35:46;102984.28;;;8.64;100.00
69667;BME280;66534;52.370;4.832;2023-05-03T01:36:25;102986.94;;;8.44;100.00
69667;BME280;66534;52.370;4.832;2023-05-03T01:37:01;102992.16;;;8.52;100.00
69667;BME280;66534;52.370;4.832;2023-05-03T01:37:33;102986.06;;;8.69;100.00
69667;BME280;66534;52.370;4.832;2023-05-03T01:38:05;102983.38;;;8.83;100.00
69667;BME280;66534;52.370;4.832;2023-05-03T01:38:37;102980.81;;;8.66;100.00
69667;BME280;66534;52.370;4.832;2023-05-03T01:39:22;102989.53;;;8.68;100.00
69667;BME280;66534;52.370;4.832;2023-05-03T01:40:02;102982.56;;;8.60;100.00
69667;BME280;66534;52.370;4.832;2023-05-03T01:40:41;102978.22;;;8.54;100.00
69667;BME280;66534;52.370;4.832;2023-05-03T01:41:14;102979.06;;;8.61;100.00
69667;BME280;66534;52.370;4.832;2023-05-03T01:41:49;102978.16;;;8.72;100.00
69667;BME280;66534;52.370;4.832;2023-05-03T01:42:20;102980.75;;;8.85;100.00
69667;BME280;66534;52.370;4.832;2023-05-03T01:42:54;102979.03;;;8.84;100.00
69667;BME280;66534;52.370;4.832;2023-05-03T01:43:25;102984.28;;;8.79;100.00
69667;BME280;66534;52.370;4.832;2023-05-03T01:43:57;102979.91;;;8.78;100.00
69667;BME280;66534;52.370;4.832;2023-05-03T01:44:28;102981.66;;;8.79;100.00
69667;BME280;66534;52.370;4.832;2023-05-03T01:45:00;102979.06;;;8.70;100.00
69667;BME280;66534;52.370;4.832;2023-05-03T01:45:33;102979.03;;;8.81;100.00
69667;BME280;66534;52.370;4.832;2023-05-03T01:46:03;102982.50;;;8.92;100.00
69667;BME280;66534;52.370;4.832;2023-05-03T01:46:40;102977.28;;;8.73;100.00
69667;BME280;66534;52.370;4.832;2023-05-03T01:47:11;102977.28;;;8.80;100.00
69667;BME280;66534;52.370;4.832;2023-05-03T01:47:44;102977.34;;;8.58;100.00
69667;BME280;66534;52.370;4.832;2023-05-03T01:48:15;102971.22;;;8.65;100.00
69667;BME280;66534;52.370;4.832;2023-05-03T01:48:47;102979.06;;;8.68;100.00
69667;BME280;66534;52.370;4.832;2023-05-03T01:49:17;102979.91;;;8.72;100.00
69667;BME280;66534;52.370;4.832;2023-05-03T01:49:48;102972.06;;;8.80;100.00
69667;BME280;66534;52.370;4.832;2023-05-03T01:50:18;102972.03;;;8.84;100.00
69667;BME280;66534;52.370;4.832;2023-05-03T01:50:49;102974.59;;;9.00;100.00
69667;BME280;66534;52.370;4.832;2023-05-03T01:51:19;102969.31;;;9.13;100.00
69667;BME280;66534;52.370;4.832;2023-05-03T01:51:50;102969.38;;;9.00;100.00
69667;BME280;66534;52.370;4.832;2023-05-03T01:52:20;102966.78;;;8.95;100.00
69667;BME280;66534;52.370;4.832;2023-05-03T01:52:52;102964.97;;;9.08;100.00
69667;BME280;66534;52.370;4.832;2023-05-03T01:53:22;102963.19;;;9.13;100.00
69667;BME280;66534;52.370;4.832;2023-05-03T01:53:53;102966.72;;;9.03;100.00
69667;BME280;66534;52.370;4.832;2023-05-03T01:54:23;102964.09;;;9.03;100.00
69667;BME280;66534;52.370;4.832;2023-05-03T01:54:53;102954.56;;;8.95;100.00
69667;BME280;66534;52.370;4.832;2023-05-03T01:55:24;102954.47;;;9.11;100.00
69667;BME280;66534;52.370;4.832;2023-05-03T01:55:54;102957.16;;;8.97;100.00
69667;BME280;66534;52.370;4.832;2023-05-03T01:56:25;102962.41;;;8.92;100.00
69667;BME280;66534;52.370;4.832;2023-05-03T01:56:56;102951.94;;;8.89;100.00
69667;BME280;66534;52.370;4.832;2023-05-03T01:57:26;102953.72;;;8.90;100.00
69667;BME280;66534;52.370;4.832;2023-05-03T01:57:56;102958.16;;;8.59;100.00
69667;BME280;66534;52.370;4.832;2023-05-03T01:58:27;102962.50;;;8.62;100.00
69667;BME280;66534;52.370;4.832;2023-05-03T01:58:57;102958.97;;;8.73;100.00
69667;BME280;66534;52.370;4.832;2023-05-03T01:59:28;102958.09;;;8.73;100.00
69667;BME280;66534;52.370;4.832;2023-05-03T01:59:58;102960.75;;;8.67;100.00
69667;BME280;66534;52.370;4.832;2023-05-03T02:00:28;102952.03;;;8.71;100.00
69667;BME280;66534;52.370;4.832;2023-05-03T02:00:59;102952.03;;;8.68;100.00
69667;BME280;66534;52.370;4.832;2023-05-03T02:01:29;102947.72;;;8.44;100.00
69667;BME280;66534;52.370;4.832;2023-05-03T02:02:00;102946.81;;;8.31;100.00
69667;BME280;66534;52.370;4.832;2023-05-03T02:02:30;102950.34;;;8.21;100.00
69667;BME280;66534;52.370;4.832;2023-05-03T02:03:00;102952.06;;;8.10;100.00
69667;BME280;66534;52.370;4.832;2023-05-03T02:03:31;102949.47;;;8.02;100.00
69667;BME280;66534;52.370;4.832;2023-05-03T02:04:01;102950.34;;;8.18;100.00
69667;BME280;66534;52.370;4.832;2023-05-03T02:04:32;102946.00;;;8.37;100.00
69667;BME280;66534;52.370;4.832;2023-05-03T02:05:02;102947.72;;;8.36;100.00
69667;BME280;66534;52.370;4.832;2023-05-03T02:05:33;102946.84;;;8.05;100.00
69667;BME280;66534;52.370;4.832;2023-05-03T02:06:04;102946.00;;;8.12;100.00
69667;BME280;66534;52.370;4.832;2023-05-03T02:06:34;102937.25;;;8.36;100.00
69667;BME280;66534;52.370;4.832;2023-05-03T02:07:05;102937.25;;;8.42;100.00
69667;BME280;66534;52.370;4.832;2023-05-03T02:07:35;102942.50;;;8.39;100.00
69667;BME280;66534;52.370;4.832;2023-05-03T02:08:05;102937.25;;;8.39;100.00
69667;BME280;66534;52.370;4.832;2023-05-03T02:08:36;102939.84;;;8.32;100.00
69667;BME280;66534;52.370;4.832;2023-05-03T02:09:06;102926.81;;;8.26;100.00
69667;BME280;66534;52.370;4.832;2023-05-03T02:09:37;102925.94;;;8.25;100.00
69667;BME280;66534;52.370;4.832;2023-05-03T02:10:07;102931.16;;;8.50;100.00
69667;BME280;66534;52.370;4.832;2023-05-03T02:10:43;102929.38;;;8.52;100.00
69667;BME280;66534;52.370;4.832;2023-05-03T02:11:13;102928.50;;;8.59;100.00
69667;BME280;66534;52.370;4.832;2023-05-03T02:11:44;102929.41;;;8.44;100.00
69667;BME280;66534;52.370;4.832;2023-05-03T02:12:14;102929.41;;;8.39;100.00
69667;BME280;66534;52.370;4.832;2023-05-03T02:12:44;102918.09;;;8.28;100.00
69667;BME280;66534;52.370;4.832;2023-05-03T02:13:15;102923.31;;;8.45;100.00
69667;BME280;66534;52.370;4.832;2023-05-03T02:13:47;102926.78;;;8.53;100.00
69667;BME280;66534;52.370;4.832;2023-05-03T02:14:19;102923.28;;;8.62;100.00
69667;BME280;66534;52.370;4.832;2023-05-03T02:14:49;102915.41;;;8.60;100.00
69667;BME280;66534;52.370;4.832;2023-05-03T02:15:20;102924.16;;;8.53;100.00
69667;BME280;66534;52.370;4.832;2023-05-03T02:15:50;102924.16;;;8.52;100.00
69667;BME280;66534;52.370;4.832;2023-05-03T02:16:21;102913.72;;;8.42;100.00
69667;BME280;66534;52.370;4.832;2023-05-03T02:16:51;102915.44;;;8.59;100.00
69667;BME280;66534;52.370;4.832;2023-05-03T02:17:24;102914.53;;;8.67;100.00
69667;BME280;66534;52.370;4.832;2023-05-03T02:17:57;102919.81;;;8.47;100.00
69667;BME280;66534;52.370;4.832;2023-05-03T02:18:31;102912.84;;;8.31;100.00
69667;BME280;66534;52.370;4.832;2023-05-03T02:19:02;102915.47;;;8.19;100.00
69667;BME280;66534;52.370;4.832;2023-05-03T02:19:33;102921.56;;;8.18;100.00
69667;BME280;66534;52.370;4.832;2023-05-03T02:20:04;102919.88;;;8.03;100.00
69667;BME280;66534;52.370;4.832;2023-05-03T02:20:38;102919.00;;;8.07;100.00
69667;BME280;66534;52.370;4.832;2023-05-03T02:21:13;102912.88;;;8.05;100.00
69667;BME280;66534;52.370;4.832;2023-05-03T02:21:43;102905.91;;;8.06;100.00
69667;BME280;66534;52.370;4.832;2023-05-03T02:22:14;102917.22;;;8.14;100.00
69667;BME280;66534;52.370;4.832;2023-05-03T02:22:44;102926.81;;;8.04;100.00
69667;BME280;66534;52.370;4.832;2023-05-03T02:23:15;102915.50;;;7.88;100.00
69667;BME280;66534;52.370;4.832;2023-05-03T02:23:45;102918.97;;;7.81;100.00
69667;BME280;66534;52.370;4.832;2023-05-03T02:24:16;102910.25;;;7.85;100.00
69667;BME280;66534;52.370;4.832;2023-05-03T02:24:46;102918.13;;;7.88;100.00
69667;BME280;66534;52.370;4.832;2023-05-03T02:25:17;102922.47;;;7.98;100.00
69667;BME280;66534;52.370;4.832;2023-05-03T02:25:48;102913.75;;;8.12;100.00
69667;BME280;66534;52.370;4.832;2023-05-03T02:26:18;102915.47;;;8.17;100.00
69667;BME280;66534;52.370;4.832;2023-05-03T02:26:49;102918.09;;;8.16;100.00
69667;BME280;66534;52.370;4.832;2023-05-03T02:27:20;102922.44;;;8.24;100.00
69667;BME280;66534;52.370;4.832;2023-05-03T02:27:50;102920.69;;;8.25;100.00
69667;BME280;66534;52.370;4.832;2023-05-03T02:28:21;102926.78;;;8.30;100.00
69667;BME280;66534;52.370;4.832;2023-05-03T02:28:51;102922.44;;;8.18;100.00
69667;BME280;66534;52.370;4.832;2023-05-03T02:29:21;102926.81;;;8.18;100.00
69667;BME280;66534;52.370;4.832;2023-05-03T02:29:52;102925.94;;;8.25;100.00
69667;BME280;66534;52.370;4.832;2023-05-03T02:30:22;102922.44;;;8.32;100.00
69667;BME280;66534;52.370;4.832;2023-05-03T02:30:53;102923.31;;;8.25;100.00
69667;BME280;66534;52.370;4.832;2023-05-03T02:31:23;102927.69;;;8.03;100.00
69667;BME280;66534;52.370;4.832;2023-05-03T02:31:54;102931.19;;;7.96;100.00
69667;BME280;66534;52.370;4.832;2023-05-03T02:32:24;102933.81;;;7.99;100.00
69667;BME280;66534;52.370;4.832;2023-05-03T02:32:55;102930.31;;;8.05;100.00
69667;BME280;66534;52.370;4.832;2023-05-03T02:33:25;102935.53;;;8.00;100.00
69667;BME280;66534;52.370;4.832;2023-05-03T02:33:56;102937.28;;;8.24;100.00
69667;BME280;66534;52.370;4.832;2023-05-03T02:34:26;102940.75;;;8.49;100.00
69667;BME280;66534;52.370;4.832;2023-05-03T02:34:56;102936.31;;;8.71;100.00
69667;BME280;66534;52.370;4.832;2023-05-03T02:35:27;102927.56;;;8.73;100.00
69667;BME280;66534;52.370;4.832;2023-05-03T02:35:57;102930.13;;;8.89;100.00
69667;BME280;66534;52.370;4.832;2023-05-03T02:36:28;102936.19;;;9.02;100.00
69667;BME280;66534;52.370;4.832;2023-05-03T02:36:58;102928.34;;;9.02;100.00
69667;BME280;66534;52.370;4.832;2023-05-03T02:37:29;102926.69;;;8.87;100.00
69667;BME280;66534;52.370;4.832;2023-05-03T02:37:59;102925.81;;;8.86;100.00
69667;BME280;66534;52.370;4.832;2023-05-03T02:38:30;102929.19;;;9.10;100.00
69667;BME280;66534;52.370;4.832;2023-05-03T02:39:00;102929.94;;;9.27;100.00
69667;BME280;66534;52.370;4.832;2023-05-03T02:39:31;102923.03;;;9.20;100.00
69667;BME280;66534;52.370;4.832;2023-05-03T02:40:01;102930.91;;;9.12;100.00
69667;BME280;66534;52.370;4.832;2023-05-03T02:40:31;102928.34;;;9.05;100.00
69667;BME280;66534;52.370;4.832;2023-05-03T02:41:02;102932.72;;;9.01;100.00
69667;BME280;66534;52.370;4.832;2023-05-03T02:41:32;102936.22;;;8.94;100.00
69667;BME280;66534;52.370;4.832;2023-05-03T02:42:03;102940.50;;;9.15;100.00
69667;BME280;66534;52.370;4.832;2023-05-03T02:42:33;102940.53;;;9.06;100.00
69667;BME280;66534;52.370;4.832;2023-05-03T02:43:04;102939.69;;;9.04;100.00
69667;BME280;66534;52.370;4.832;2023-05-03T02:43:34;102945.72;;;9.18;100.00
69667;BME280;66534;52.370;4.832;2023-05-03T02:44:04;102943.06;;;9.26;100.00
69667;BME280;66534;52.370;4.832;2023-05-03T02:44:35;102946.53;;;9.29;100.00
69667;BME280;66534;52.370;4.832;2023-05-03T02:45:05;102947.44;;;9.25;100.00
69667;BME280;66534;52.370;4.832;2023-05-03T02:45:36;102952.00;;;8.76;100.00
69667;BME280;66534;52.370;4.832;2023-05-03T02:46:06;102958.13;;;8.61;100.00
69667;BME280;66534;52.370;4.832;2023-05-03T02:46:37;102954.72;;;8.40;100.00
69667;BME280;66534;52.370;4.832;2023-05-03T02:47:07;102962.53;;;8.51;100.00
69667;BME280;66534;52.370;4.832;2023-05-03T02:47:38;102959.84;;;8.76;100.00
69667;BME280;66534;52.370;4.832;2023-05-03T02:48:08;102958.94;;;8.89;100.00
69667;BME280;66534;52.370;4.832;2023-05-03T02:48:39;102958.03;;;9.01;100.00
69667;BME280;66534;52.370;4.832;2023-05-03T02:49:10;102957.06;;;9.20;100.00
69667;BME280;66534;52.370;4.832;2023-05-03T02:49:40;102957.06;;;9.18;100.00
69667;BME280;66534;52.370;4.832;2023-05-03T02:50:11;102961.41;;;9.19;100.00
69667;BME280;66534;52.370;4.832;2023-05-03T02:50:41;102954.50;;;9.08;100.00
69667;BME280;66534;52.370;4.832;2023-05-03T02:51:12;102953.53;;;9.27;100.00
69667;BME280;66534;52.370;4.832;2023-05-03T02:51:42;102953.59;;;9.16;100.00
69667;BME280;66534;52.370;4.832;2023-05-03T02:52:13;102951.84;;;9.11;100.00
69667;BME280;66534;52.370;4.832;2023-05-03T02:52:43;102949.22;;;9.20;100.00
69667;BME280;66534;52.370;4.832;2023-05-03T02:53:14;102959.59;;;9.37;100.00
69667;BME280;66534;52.370;4.832;2023-05-03T02:53:44;102951.72;;;9.35;100.00
69667;BME280;66534;52.370;4.832;2023-05-03T02:54:15;102954.44;;;9.21;100.00
69667;BME280;66534;52.370;4.832;2023-05-03T02:54:45;102958.00;;;9.08;100.00
69667;BME280;66534;52.370;4.832;2023-05-03T02:55:18;102959.78;;;8.95;100.00
69667;BME280;66534;52.370;4.832;2023-05-03T02:55:48;102955.41;;;8.94;100.00
69667;BME280;66534;52.370;4.832;2023-05-03T02:56:19;102958.97;;;8.77;100.00
69667;BME280;66534;52.370;4.832;2023-05-03T02:56:49;102949.41;;;8.66;100.00
69667;BME280;66534;52.370;4.832;2023-05-03T02:57:20;102965.13;;;8.69;100.00
69667;BME280;66534;52.370;4.832;2023-05-03T02:57:50;102962.50;;;8.63;100.00
69667;BME280;66534;52.370;4.832;2023-05-03T02:58:21;102960.78;;;8.62;100.00
69667;BME280;66534;52.370;4.832;2023-05-03T02:58:51;102956.41;;;8.60;100.00